createdAt,value
2018-02-16T00:00:07.388Z,2.80
2018-02-16T00:02:35.764Z,2.80
2018-02-16T00:05:04.872Z,2.70
2018-02-16T00:07:33.232Z,2.70
2018-02-16T00:10:02.340Z,2.70
2018-02-16T00:12:30.732Z,2.60
2018-02-16T00:14:59.836Z,2.70
2018-02-16T00:17:28.157Z,2.60
2018-02-16T00:19:56.525Z,2.60
2018-02-16T00:22:24.848Z,2.60
2018-02-16T00:24:53.222Z,2.60
2018-02-16T00:27:22.316Z,2.60
2018-02-16T00:29:50.717Z,2.60
2018-02-16T00:32:19.044Z,2.60
2018-02-16T00:34:48.181Z,2.60
2018-02-16T00:37:16.536Z,2.60
2018-02-16T00:39:45.647Z,2.60
2018-02-16T00:42:14.016Z,2.50
2018-02-16T00:44:42.391Z,2.60
2018-02-16T00:47:10.740Z,2.60
2018-02-16T00:49:39.077Z,2.50
2018-02-16T00:52:07.432Z,2.50
2018-02-16T00:54:35.796Z,2.50
2018-02-16T00:57:04.900Z,2.50
2018-02-16T00:59:33.290Z,2.40
2018-02-16T01:02:01.673Z,2.50
2018-02-16T01:04:30.036Z,2.50
2018-02-16T01:06:58.377Z,2.40
2018-02-16T01:09:26.733Z,2.40
2018-02-16T01:11:55.053Z,2.40
2018-02-16T01:14:24.184Z,2.30
2018-02-16T01:16:52.540Z,2.30
2018-02-16T01:19:21.629Z,2.30
2018-02-16T01:21:50.760Z,2.20
2018-02-16T01:24:19.105Z,2.20
2018-02-16T01:26:48.245Z,2.20
2018-02-16T01:29:16.596Z,2.20
2018-02-16T01:31:44.944Z,2.30
2018-02-16T01:34:14.061Z,2.20
2018-02-16T01:36:43.176Z,2.20
2018-02-16T01:39:11.533Z,2.20
2018-02-16T01:41:39.900Z,2.20
2018-02-16T01:44:08.997Z,2.20
2018-02-16T01:46:38.240Z,2.20
2018-02-16T01:49:06.727Z,2.10
2018-02-16T01:51:35.101Z,2.10
2018-02-16T01:54:03.429Z,2.20
2018-02-16T01:56:32.517Z,2.20
2018-02-16T01:59:00.861Z,2.10
2018-02-16T02:01:29.192Z,2.20
2018-02-16T02:03:57.585Z,2.20
2018-02-16T02:06:25.920Z,2.20
2018-02-16T02:08:54.265Z,2.20
2018-02-16T02:11:22.615Z,2.20
2018-02-16T02:13:50.975Z,2.20
2018-02-16T02:16:20.068Z,2.20
2018-02-16T02:18:48.408Z,2.10
2018-02-16T02:21:16.792Z,2.20
2018-02-16T02:23:45.414Z,2.10
2018-02-16T02:26:13.771Z,2.10
2018-02-16T02:28:42.112Z,2.10
2018-02-16T02:31:10.481Z,2.10
2018-02-16T02:33:38.817Z,2.10
2018-02-16T02:36:07.181Z,2.00
2018-02-16T02:38:36.281Z,2.00
2018-02-16T02:41:05.396Z,1.90
2018-02-16T02:43:33.745Z,1.90
2018-02-16T02:46:02.892Z,1.90
2018-02-16T02:48:31.227Z,1.90
2018-02-16T02:51:00.324Z,1.90
2018-02-16T02:53:28.693Z,1.90
2018-02-16T02:55:57.880Z,1.90
2018-02-16T02:58:26.215Z,1.90
2018-02-16T03:00:54.568Z,1.90
2018-02-16T03:03:22.939Z,1.90
2018-02-16T03:05:52.038Z,1.90
2018-02-16T03:08:20.405Z,1.80
2018-02-16T03:10:49.499Z,1.90
2018-02-16T03:13:18.621Z,1.90
2018-02-16T03:15:46.973Z,1.80
2018-02-16T03:18:15.333Z,1.80
2018-02-16T03:20:44.448Z,1.80
2018-02-16T03:23:12.781Z,1.80
2018-02-16T03:25:41.133Z,1.80
2018-02-16T03:28:09.493Z,1.80
2018-02-16T03:30:37.855Z,1.80
2018-02-16T03:33:06.954Z,1.80
2018-02-16T03:35:36.127Z,1.80
2018-02-16T03:38:04.462Z,1.70
2018-02-16T03:40:32.825Z,1.80
2018-02-16T03:43:01.229Z,1.80
2018-02-16T03:45:29.572Z,1.80
2018-02-16T03:47:57.929Z,1.80
2018-02-16T03:50:27.056Z,1.70
2018-02-16T03:52:55.392Z,1.70
2018-02-16T03:55:24.510Z,1.70
2018-02-16T03:57:52.860Z,1.70
2018-02-16T04:00:21.984Z,1.70
2018-02-16T04:02:50.366Z,1.60
2018-02-16T04:05:19.510Z,1.70
2018-02-16T04:07:47.857Z,1.60
2018-02-16T04:10:16.196Z,1.70
2018-02-16T04:12:45.332Z,1.70
2018-02-16T04:15:13.663Z,1.60
2018-02-16T04:17:42.036Z,1.60
2018-02-16T04:20:10.384Z,1.60
2018-02-16T04:22:38.752Z,1.60
2018-02-16T04:25:07.089Z,1.70
2018-02-16T04:27:36.197Z,1.70
2018-02-16T04:30:04.559Z,1.60
2018-02-16T04:32:32.893Z,1.70
2018-02-16T04:35:01.296Z,1.70
2018-02-16T04:37:29.637Z,1.70
2018-02-16T04:39:57.993Z,1.70
2018-02-16T04:42:26.336Z,1.70
2018-02-16T04:44:55.472Z,1.70
2018-02-16T04:47:23.845Z,1.60
2018-02-16T04:49:52.200Z,1.70
2018-02-16T04:52:20.548Z,1.70
2018-02-16T04:54:48.878Z,1.80
2018-02-16T04:57:17.224Z,1.80
2018-02-16T04:59:46.320Z,1.70
2018-02-16T05:02:15.453Z,1.80
2018-02-16T05:04:43.793Z,1.80
2018-02-16T05:07:12.175Z,1.80
2018-02-16T05:09:41.268Z,1.90
2018-02-16T05:12:10.372Z,1.90
2018-02-16T05:14:38.705Z,1.90
2018-02-16T05:17:07.061Z,2.00
2018-02-16T05:19:35.397Z,2.00
2018-02-16T05:22:04.512Z,2.00
2018-02-16T05:24:32.834Z,1.90
2018-02-16T05:27:01.302Z,2.00
2018-02-16T05:29:29.628Z,2.00
2018-02-16T05:31:58.731Z,2.00
2018-02-16T05:34:27.088Z,2.00
2018-02-16T05:36:56.210Z,2.00
2018-02-16T05:39:24.576Z,2.00
2018-02-16T05:41:52.916Z,2.00
2018-02-16T05:44:21.248Z,2.10
2018-02-16T05:46:49.604Z,2.10
2018-02-16T05:49:18.712Z,2.00
2018-02-16T05:51:47.060Z,2.00
2018-02-16T05:54:15.412Z,2.00
2018-02-16T05:56:43.803Z,2.00
2018-02-16T05:59:12.127Z,2.00
2018-02-16T06:01:40.498Z,2.10
2018-02-16T06:04:08.872Z,2.10
2018-02-16T06:06:38.020Z,2.00
2018-02-16T06:09:07.136Z,2.10
2018-02-16T06:11:36.264Z,2.20
2018-02-16T06:14:04.577Z,2.20
2018-02-16T06:16:32.949Z,2.20
2018-02-16T06:19:01.298Z,2.20
2018-02-16T06:21:29.687Z,2.20
2018-02-16T06:23:58.056Z,2.20
2018-02-16T06:26:26.373Z,2.10
2018-02-16T06:28:54.719Z,2.10
2018-02-16T06:31:23.064Z,2.10
2018-02-16T06:33:52.189Z,2.10
2018-02-16T06:36:20.524Z,2.00
2018-02-16T06:38:48.882Z,2.10
2018-02-16T06:41:17.224Z,2.00
2018-02-16T06:43:45.565Z,2.00
2018-02-16T06:46:13.929Z,2.00
2018-02-16T06:48:42.352Z,2.00
2018-02-16T06:51:10.759Z,2.00
2018-02-16T06:53:39.101Z,2.00
2018-02-16T06:56:07.920Z,2.00
2018-02-16T06:58:36.258Z,2.00
2018-02-16T07:01:04.643Z,2.10
2018-02-16T07:03:33.022Z,2.20
2018-02-16T07:06:01.501Z,2.20
2018-02-16T07:08:29.861Z,2.20
2018-02-16T07:10:58.947Z,2.30
2018-02-16T07:13:27.360Z,2.30
2018-02-16T07:15:55.697Z,2.30
2018-02-16T07:18:24.079Z,2.40
2018-02-16T07:20:52.438Z,2.40
2018-02-16T07:23:20.798Z,2.40
2018-02-16T07:25:49.129Z,2.50
2018-02-16T07:28:18.244Z,2.60
2018-02-16T07:30:46.714Z,2.50
2018-02-16T07:33:15.052Z,2.60
2018-02-16T07:35:43.413Z,2.60
2018-02-16T07:38:11.805Z,2.70
2018-02-16T07:40:40.921Z,2.80
2018-02-16T07:43:10.070Z,2.80
2018-02-16T07:45:38.404Z,2.80
2018-02-16T07:48:07.493Z,2.90
2018-02-16T07:50:36.615Z,3.00
2018-02-16T07:53:04.963Z,2.90
2018-02-16T07:55:33.355Z,3.10
2018-02-16T07:58:01.723Z,3.20
2018-02-16T08:00:30.121Z,3.20
2018-02-16T08:02:58.461Z,3.30
2018-02-16T08:05:26.806Z,3.30
2018-02-16T08:07:55.146Z,3.40
2018-02-16T08:10:23.501Z,3.40
2018-02-16T08:12:52.607Z,3.50
2018-02-16T08:15:20.988Z,3.40
2018-02-16T08:17:50.068Z,3.50
2018-02-16T08:20:19.177Z,3.70
2018-02-16T08:22:48.297Z,3.80
2018-02-16T08:25:16.652Z,3.70
2018-02-16T08:27:45.009Z,3.80
2018-02-16T08:30:14.135Z,4.10
2018-02-16T08:32:42.508Z,4.10
2018-02-16T08:35:11.600Z,4.20
2018-02-16T08:37:40.713Z,4.30
2018-02-16T08:40:09.051Z,4.20
2018-02-16T08:42:38.168Z,4.30
2018-02-16T08:45:06.528Z,4.30
2018-02-16T08:47:34.876Z,4.30
2018-02-16T08:50:03.253Z,4.30
2018-02-16T08:52:31.605Z,4.30
2018-02-16T08:54:59.928Z,4.40
2018-02-16T08:57:29.057Z,4.40
2018-02-16T08:59:57.380Z,4.40
2018-02-16T09:02:25.768Z,4.50
2018-02-16T09:04:55.256Z,4.60
2018-02-16T09:07:23.596Z,4.50
2018-02-16T09:09:51.920Z,4.60
2018-02-16T09:12:20.301Z,4.60
2018-02-16T09:14:48.658Z,4.60
2018-02-16T09:17:16.998Z,4.60
2018-02-16T09:19:45.357Z,4.60
2018-02-16T09:22:14.472Z,4.60
2018-02-16T09:24:42.796Z,4.60
2018-02-16T09:27:11.169Z,4.60
2018-02-16T09:29:39.504Z,4.60
2018-02-16T09:34:38.184Z,4.80
2018-02-16T09:37:08.713Z,4.80
2018-02-16T09:39:38.720Z,4.90
2018-02-16T09:42:07.076Z,4.80
2018-02-16T09:44:35.469Z,4.90
2018-02-16T09:47:03.796Z,4.90
2018-02-16T09:49:32.161Z,5.00
2018-02-16T09:52:00.492Z,5.00
2018-02-16T09:54:28.863Z,5.10
2018-02-16T09:56:57.192Z,5.20
2018-02-16T09:59:25.516Z,5.20
2018-02-16T10:01:53.877Z,5.20
2018-02-16T10:04:22.225Z,5.30
2018-02-16T10:06:51.341Z,5.30
2018-02-16T10:09:19.699Z,5.30
2018-02-16T10:11:48.065Z,5.40
2018-02-16T10:14:17.161Z,5.40
2018-02-16T10:16:45.521Z,5.40
2018-02-16T10:19:13.900Z,5.40
2018-02-16T10:21:42.997Z,5.50
2018-02-16T10:24:12.125Z,5.60
2018-02-16T10:26:40.500Z,5.50
2018-02-16T10:29:08.884Z,5.50
2018-02-16T10:31:37.237Z,5.50
2018-02-16T10:34:05.607Z,5.50
2018-02-16T10:36:34.697Z,5.70
2018-02-16T10:39:03.081Z,5.60
2018-02-16T10:41:32.206Z,5.80
2018-02-16T10:44:00.559Z,5.80
2018-02-16T10:46:28.898Z,5.90
2018-02-16T10:48:58.045Z,6.10
2018-02-16T10:51:26.373Z,6.10
2018-02-16T10:53:54.728Z,6.30
2018-02-16T10:56:24.269Z,6.60
2018-02-16T10:58:52.611Z,6.50
2018-02-16T11:01:20.980Z,6.90
2018-02-16T11:03:55.011Z,7.20
2018-02-16T11:06:29.021Z,7.40
2018-02-16T11:09:03.077Z,7.50
2018-02-16T11:11:32.189Z,7.30
2018-02-16T11:14:00.534Z,7.20
2018-02-16T11:16:29.969Z,7.20
2018-02-16T11:18:58.292Z,7.20
2018-02-16T11:21:26.616Z,7.20
2018-02-16T11:23:55.718Z,7.30
2018-02-16T11:26:24.113Z,7.20
2018-02-16T11:28:52.442Z,7.50
2018-02-16T11:31:20.768Z,7.40
2018-02-16T11:33:49.116Z,7.30
2018-02-16T11:36:18.224Z,7.10
2018-02-16T11:38:47.361Z,6.90
2018-02-16T11:41:15.696Z,6.80
2018-02-16T11:43:44.069Z,6.60
2018-02-16T11:46:12.426Z,6.50
2018-02-16T11:48:41.548Z,6.60
2018-02-16T11:51:09.919Z,6.60
2018-02-16T11:53:38.301Z,6.70
2018-02-16T11:56:06.676Z,6.60
2018-02-16T11:58:35.060Z,6.40
2018-02-16T12:01:03.393Z,6.40
2018-02-16T12:03:32.636Z,6.70
2018-02-16T12:06:01.018Z,6.70
2018-02-16T12:08:29.376Z,6.80
2018-02-16T12:10:58.496Z,7.00
2018-02-16T12:13:26.836Z,7.00
2018-02-16T12:15:55.972Z,7.10
2018-02-16T12:18:24.349Z,7.00
2018-02-16T12:20:52.722Z,7.10
2018-02-16T12:23:21.116Z,7.10
2018-02-16T12:25:49.531Z,7.20
2018-02-16T12:28:17.905Z,7.10
2018-02-16T12:30:47.049Z,6.90
2018-02-16T12:33:15.380Z,6.80
2018-02-16T12:35:44.595Z,6.60
2018-02-16T12:38:12.908Z,6.50
2018-02-16T12:40:41.281Z,6.40
2018-02-16T12:43:09.652Z,6.10
2018-02-16T12:45:37.973Z,6.00
2018-02-16T12:48:06.328Z,6.00
2018-02-16T12:50:34.661Z,6.00
2018-02-16T12:53:03.749Z,6.10
2018-02-16T12:55:32.868Z,6.10
2018-02-16T12:58:01.200Z,6.00
2018-02-16T13:00:29.561Z,6.10
2018-02-16T13:02:57.876Z,6.00
2018-02-16T13:05:27.004Z,6.00
2018-02-16T13:07:55.326Z,6.00
2018-02-16T13:10:23.698Z,6.10
2018-02-16T13:12:52.040Z,6.20
2018-02-16T13:15:20.393Z,6.20
2018-02-16T13:17:49.523Z,6.20
2018-02-16T13:20:18.265Z,6.20
2018-02-16T13:22:47.361Z,6.30
2018-02-16T13:25:15.716Z,6.20
2018-02-16T13:27:44.864Z,6.20
2018-02-16T13:30:18.105Z,6.10
2018-02-16T13:32:46.468Z,6.20
2018-02-16T13:35:15.609Z,6.30
2018-02-16T13:37:43.975Z,6.30
2018-02-16T13:40:13.450Z,6.50
2018-02-16T13:42:43.335Z,6.60
2018-02-16T13:45:11.660Z,6.60
2018-02-16T13:47:40.001Z,6.80
2018-02-16T13:50:08.347Z,6.80
2018-02-16T13:52:36.689Z,6.80
2018-02-16T13:55:05.032Z,6.80
2018-02-16T13:57:33.368Z,6.80
2018-02-16T14:00:01.724Z,6.80
2018-02-16T14:02:30.036Z,6.70
2018-02-16T14:04:58.434Z,6.70
2018-02-16T14:07:26.869Z,6.60
2018-02-16T14:09:55.970Z,6.60
2018-02-16T14:12:24.380Z,6.50
2018-02-16T14:14:52.706Z,6.40
2018-02-16T14:17:21.068Z,6.30
2018-02-16T14:19:49.392Z,6.30
2018-02-16T14:22:17.742Z,6.30
2018-02-16T14:24:46.894Z,6.40
2018-02-16T14:27:15.252Z,6.30
2018-02-16T14:29:43.630Z,6.40
2018-02-16T14:32:13.580Z,6.50
2018-02-16T14:34:41.926Z,6.40
2018-02-16T14:37:10.284Z,6.50
2018-02-16T14:39:38.656Z,6.50
2018-02-16T14:42:07.760Z,6.50
2018-02-16T14:44:36.126Z,6.50
2018-02-16T14:47:05.218Z,6.70
2018-02-16T14:49:34.420Z,6.70
2018-02-16T14:52:03.615Z,6.70
2018-02-16T14:54:32.737Z,6.70
2018-02-16T14:57:01.057Z,6.60
2018-02-16T14:59:29.401Z,6.70
2018-02-16T15:01:57.739Z,6.70
2018-02-16T15:04:26.878Z,6.70
2018-02-16T15:06:55.224Z,6.70
2018-02-16T15:09:24.353Z,6.90
2018-02-16T15:11:52.687Z,6.80
2018-02-16T15:14:21.797Z,7.00
2018-02-16T15:16:50.923Z,7.00
2018-02-16T15:19:19.276Z,6.90
2018-02-16T15:21:47.625Z,6.80
2018-02-16T15:24:16.703Z,6.70
2018-02-16T15:26:45.849Z,6.60
2018-02-16T15:29:14.168Z,6.60
2018-02-16T15:31:42.492Z,6.60
2018-02-16T15:34:10.860Z,6.70
2018-02-16T15:36:39.961Z,6.60
2018-02-16T15:39:08.342Z,6.60
2018-02-16T15:41:37.451Z,6.60
2018-02-16T15:44:05.814Z,6.50
2018-02-16T15:46:34.173Z,6.50
2018-02-16T15:49:03.290Z,6.40
2018-02-16T15:51:31.737Z,6.40
2018-02-16T15:54:00.880Z,6.30
2018-02-16T15:56:29.239Z,6.30
2018-02-16T15:58:57.577Z,6.30
2018-02-16T16:01:27.072Z,6.20
2018-02-16T16:06:29.952Z,6.20
2018-02-16T16:08:58.284Z,6.20
2018-02-16T16:11:26.653Z,6.20
2018-02-16T16:13:54.962Z,6.10
2018-02-16T16:16:23.339Z,6.00
2018-02-16T16:18:51.690Z,5.90
2018-02-16T16:21:20.060Z,5.80
2018-02-16T16:23:49.192Z,5.80
2018-02-16T16:26:17.538Z,5.80
2018-02-16T16:28:46.652Z,5.70
2018-02-16T16:31:15.032Z,5.60
2018-02-16T16:33:43.389Z,5.60
2018-02-16T16:36:12.587Z,5.50
2018-02-16T16:38:42.735Z,5.40
2018-02-16T16:41:11.045Z,5.30
2018-02-16T16:43:40.219Z,5.30
2018-02-16T16:46:08.593Z,5.20
2018-02-16T16:48:36.904Z,5.30
2018-02-16T16:51:05.313Z,5.20
2018-02-16T16:53:33.635Z,5.20
2018-02-16T16:56:01.988Z,5.20
2018-02-16T16:58:30.367Z,5.10
2018-02-16T17:00:58.728Z,5.10
2018-02-16T17:03:27.092Z,5.10
2018-02-16T17:05:55.888Z,5.10
2018-02-16T17:08:25.022Z,5.10
2018-02-16T17:10:53.360Z,5.10
2018-02-16T17:13:22.456Z,5.20
2018-02-16T17:15:51.580Z,5.30
2018-02-16T17:18:19.920Z,5.20
2018-02-16T17:20:49.049Z,5.30
2018-02-16T17:23:17.373Z,5.30
2018-02-16T17:25:45.729Z,5.40
2018-02-16T17:28:14.057Z,5.40
2018-02-16T17:30:43.177Z,5.40
2018-02-16T17:33:11.525Z,5.30
2018-02-16T17:35:40.650Z,5.40
2018-02-16T17:38:09.773Z,5.40
2018-02-16T17:40:38.120Z,5.40
2018-02-16T17:45:41.932Z,5.20
2018-02-16T17:48:10.268Z,5.20
2018-02-16T17:50:39.401Z,5.20
2018-02-16T17:53:08.515Z,5.10
2018-02-16T17:55:36.845Z,5.10
2018-02-16T17:58:05.213Z,5.10
2018-02-16T18:00:33.544Z,5.10
2018-02-16T18:03:01.929Z,5.10
2018-02-16T18:05:30.260Z,5.10
2018-02-16T18:07:59.396Z,5.20
2018-02-16T18:10:27.721Z,5.20
2018-02-16T18:12:56.847Z,5.30
2018-02-16T18:15:25.209Z,5.20
2018-02-16T18:17:54.305Z,5.30
2018-02-16T18:20:23.440Z,5.30
2018-02-16T18:22:51.805Z,5.30
2018-02-16T18:25:20.183Z,5.30
2018-02-16T18:27:48.521Z,5.40
2018-02-16T18:30:16.878Z,5.40
2018-02-16T18:32:45.228Z,5.40
2018-02-16T18:35:14.006Z,5.40
2018-02-16T18:37:42.344Z,5.40
2018-02-16T18:40:10.705Z,5.40
2018-02-16T18:42:39.028Z,5.40
2018-02-16T18:45:07.358Z,5.40
2018-02-16T18:47:35.725Z,5.40
2018-02-16T18:50:04.118Z,5.40
2018-02-16T18:52:32.448Z,5.40
2018-02-16T18:55:00.780Z,5.30
2018-02-16T18:57:29.136Z,5.30
2018-02-16T18:59:57.456Z,5.30
2018-02-16T19:02:26.572Z,5.30
2018-02-16T19:04:54.932Z,5.30
2018-02-16T19:07:23.304Z,5.40
2018-02-16T19:09:52.412Z,5.50
2018-02-16T19:12:20.748Z,5.40
2018-02-16T19:14:49.105Z,5.60
2018-02-16T19:17:17.432Z,5.60
2018-02-16T19:19:45.810Z,5.60
2018-02-16T19:22:14.905Z,5.80
2018-02-16T19:24:44.036Z,5.80
2018-02-16T19:27:12.405Z,5.80
2018-02-16T19:29:40.765Z,5.80
2018-02-16T19:32:09.103Z,5.90
2018-02-16T19:34:37.472Z,5.80
2018-02-16T19:37:05.824Z,5.90
2018-02-16T19:39:34.884Z,5.90
2018-02-16T19:42:03.992Z,5.80
2018-02-16T19:44:32.356Z,5.80
2018-02-16T19:47:01.465Z,5.90
2018-02-16T19:49:29.796Z,5.80
2018-02-16T19:51:58.157Z,5.90
2018-02-16T19:54:26.497Z,5.90
2018-02-16T19:56:54.858Z,5.90
2018-02-16T19:59:23.972Z,5.80
2018-02-16T20:01:52.306Z,5.70
2018-02-16T20:04:20.672Z,5.70
2018-02-16T20:06:49.025Z,5.70
2018-02-16T20:09:17.353Z,5.60
2018-02-16T20:11:46.480Z,5.50
2018-02-16T20:14:14.845Z,5.50
2018-02-16T20:16:43.180Z,5.50
2018-02-16T20:19:11.559Z,5.50
2018-02-16T20:21:39.897Z,5.40
2018-02-16T20:24:08.264Z,5.40
2018-02-16T20:26:36.844Z,5.50
2018-02-16T20:29:05.180Z,5.50
2018-02-16T20:31:33.536Z,5.40
2018-02-16T20:34:02.693Z,5.30
2018-02-16T20:36:31.809Z,5.10
2018-02-16T20:39:00.130Z,5.10
2018-02-16T20:41:29.264Z,5.00
2018-02-16T20:43:57.606Z,5.00
2018-02-16T20:46:26.849Z,5.00
2018-02-16T20:48:55.221Z,4.90
2018-02-16T20:51:23.556Z,4.90
2018-02-16T20:53:51.913Z,4.80
2018-02-16T20:56:20.268Z,4.70
2018-02-16T20:58:48.588Z,4.70
2018-02-16T21:01:16.953Z,4.60
2018-02-16T21:03:45.280Z,4.50
2018-02-16T21:06:13.641Z,4.50
2018-02-16T21:08:42.741Z,4.40
2018-02-16T21:11:11.868Z,4.30
2018-02-16T21:13:40.187Z,4.30
2018-02-16T21:16:08.529Z,4.30
2018-02-16T21:18:36.885Z,4.20
2018-02-16T21:21:05.249Z,4.20
2018-02-16T21:23:34.383Z,4.00
2018-02-16T21:26:03.141Z,4.00
2018-02-16T21:28:31.503Z,4.00
2018-02-16T21:31:00.106Z,3.90
2018-02-16T21:33:28.509Z,3.90
2018-02-16T21:35:56.856Z,3.80
2018-02-16T21:38:25.304Z,3.80
2018-02-16T21:40:53.650Z,3.70
2018-02-16T21:43:21.980Z,3.70
2018-02-16T21:45:50.340Z,3.70
2018-02-16T21:48:19.462Z,3.60
2018-02-16T21:50:48.583Z,3.60
2018-02-16T21:53:16.908Z,3.50
2018-02-16T21:55:45.728Z,3.50
2018-02-16T21:58:14.076Z,3.50
2018-02-16T22:00:42.428Z,3.50
2018-02-16T22:03:10.765Z,3.40
2018-02-16T22:05:39.139Z,3.40
2018-02-16T22:08:07.517Z,3.40
2018-02-16T22:10:35.865Z,3.30
2018-02-16T22:13:04.960Z,3.20
2018-02-16T22:15:34.092Z,3.20
2018-02-16T22:18:02.449Z,3.10
2018-02-16T22:20:30.788Z,3.20
2018-02-16T22:22:59.917Z,3.10
2018-02-16T22:25:29.044Z,3.10
2018-02-16T22:27:57.519Z,3.00
2018-02-16T22:30:25.853Z,3.00
2018-02-16T22:32:54.175Z,3.00
2018-02-16T22:35:22.524Z,2.90
2018-02-16T22:37:51.649Z,2.90
2018-02-16T22:40:19.999Z,2.80
2018-02-16T22:42:49.093Z,2.90
2018-02-16T22:45:17.488Z,2.80
2018-02-16T22:47:45.812Z,2.80
2018-02-16T22:50:14.163Z,2.80
2018-02-16T22:52:42.538Z,2.80
2018-02-16T22:55:11.097Z,2.80
2018-02-16T22:57:39.465Z,2.80
2018-02-16T23:00:08.578Z,2.70
2018-02-16T23:02:36.930Z,2.70
2018-02-16T23:05:05.321Z,2.70
2018-02-16T23:07:33.695Z,2.70
2018-02-16T23:10:02.825Z,2.50
2018-02-16T23:12:31.152Z,2.50
2018-02-16T23:15:00.275Z,2.60
2018-02-16T23:17:28.654Z,2.50
2018-02-16T23:19:57.741Z,2.50
2018-02-16T23:22:26.112Z,2.50
2018-02-16T23:24:55.316Z,2.50
2018-02-16T23:27:23.692Z,2.40
2018-02-16T23:29:52.055Z,2.50
2018-02-16T23:32:21.160Z,2.50
2018-02-16T23:34:50.296Z,2.50
2018-02-16T23:37:18.634Z,2.40
2018-02-16T23:39:47.001Z,2.50
2018-02-16T23:44:43.749Z,2.50
2018-02-16T23:47:12.087Z,2.40
2018-02-16T23:49:41.213Z,2.40
2018-02-16T23:52:09.555Z,2.40
2018-02-16T23:54:38.662Z,2.40
2018-02-16T23:57:07.786Z,2.40
2018-02-16T23:59:36.120Z,2.30
